Time;durP1;ratioP1;P1;durP2;ratioP2;P2;SDS_P1;SDS_P2;PMS_P1;PMS_P2;Temp;Humidity;BMP_temperature;BMP_pressure;BME280_temperature;BME280_humidity;BME280_pressure;Samples;Min_cycle;Max_cycle;Signal;HPM_P1;HPM_P2
2021/01/26 00:00:17;;;;;;;8.40;4.45;;;;;;;8.35;73.55;97986.80;1684902;83;21212;-76
2021/01/26 00:02:45;;;;;;;9.10;4.90;;;;;;;8.29;73.71;97980.44;1698549;83;21196;-75
2021/01/26 00:05:14;;;;;;;8.13;4.95;;;;;;;8.25;73.79;97980.42;1709728;83;21148;-75
2021/01/26 00:07:42;;;;;;;9.38;4.22;;;;;;;8.16;73.80;97982.25;1717265;83;21175;-75
2021/01/26 00:10:11;;;;;;;8.38;3.75;;;;;;;8.14;73.84;97976.36;1687946;81;21183;-75
2021/01/26 00:12:39;;;;;;;9.85;4.10;;;;;;;8.23;73.71;97977.16;1749422;81;21427;-77
2021/01/26 00:15:08;;;;;;;8.15;4.28;;;;;;;8.27;73.65;97976.33;1685164;83;21625;-75
2021/01/26 00:20:11;;;;;;;7.67;4.53;;;;;;;8.29;73.60;97963.41;1794953;77;22148;-75
2021/01/26 00:22:40;;;;;;;9.05;5.15;;;;;;;8.14;73.69;97956.72;1776785;80;21184;-76
2021/01/26 00:25:10;;;;;;;12.30;5.50;;;;;;;8.12;73.82;97963.09;1776042;79;21702;-75
2021/01/26 00:27:37;;;;;;;8.05;4.20;;;;;;;8.07;73.73;97951.83;1739931;80;21161;-76
2021/01/26 00:30:08;;;;;;;7.28;3.90;;;;;;;8.06;73.74;97959.85;1777735;80;21567;-77
2021/01/26 00:32:35;;;;;;;9.30;4.62;;;;;;;8.15;73.53;97958.84;1775849;80;21105;-75
2021/01/26 00:35:04;;;;;;;7.72;4.20;;;;;;;8.18;73.40;97956.70;1716413;81;21182;-75
2021/01/26 00:37:32;;;;;;;8.43;4.40;;;;;;;8.16;73.23;97950.81;1730080;82;21207;-76
2021/01/26 00:40:00;;;;;;;8.78;4.47;;;;;;;8.07;73.46;97950.98;1685513;83;22148;-75
2021/01/26 00:42:27;;;;;;;10.23;5.50;;;;;;;7.99;73.70;97961.00;1714489;83;21162;-75
2021/01/26 00:44:56;;;;;;;10.00;4.53;;;;;;;7.90;73.83;97949.73;1721445;80;21187;-76
2021/01/26 00:47:23;;;;;;;8.05;4.42;;;;;;;7.83;73.95;97959.20;1757528;80;21176;-75
2021/01/26 00:49:50;;;;;;;9.05;4.90;;;;;;;7.81;74.03;97963.30;1743973;81;21497;-76
2021/01/26 00:53:57;;;;;;;5.92;2.17;;;;;;;7.88;73.74;97966.08;1749271;77;22746;-78
2021/01/26 00:56:27;;;;;;;7.47;2.08;;;;;;;7.73;72.98;97979.50;1719209;82;21626;-77
2021/01/26 00:58:54;;;;;;;3.98;1.85;;;;;;;7.51;71.63;97994.86;1699177;82;21333;-76
2021/01/26 01:01:22;;;;;;;4.10;1.65;;;;;;;7.23;71.71;98002.19;1718566;82;21188;-77
2021/01/26 01:03:52;;;;;;;8.35;2.00;;;;;;;7.00;72.48;98005.38;1718166;82;21651;-76
2021/01/26 01:06:19;;;;;;;3.87;1.60;;;;;;;6.84;71.84;98007.92;1702819;82;21618;-75
2021/01/26 01:08:47;;;;;;;5.42;1.77;;;;;;;6.76;71.57;98021.80;1714577;81;21193;-77
2021/01/26 01:11:14;;;;;;;4.60;1.82;;;;;;;6.58;71.48;98013.22;1677958;83;21259;-74
2021/01/26 01:13:41;;;;;;;4.25;1.77;;;;;;;6.36;71.69;98018.48;1694223;82;22606;-73
2021/01/26 01:16:09;;;;;;;3.62;1.30;;;;;;;6.16;71.99;98006.11;1696170;82;21661;-74
2021/01/26 01:18:36;;;;;;;5.42;1.60;;;;;;;6.00;72.43;98011.55;1693725;83;21164;-77
2021/01/26 01:21:04;;;;;;;4.90;1.60;;;;;;;5.87;72.70;98015.01;1670995;82;21191;-76
2021/01/26 01:23:31;;;;;;;4.20;1.40;;;;;;;5.82;72.89;98028.50;1672782;82;21218;-74
2021/01/26 01:26:00;;;;;;;2.90;0.95;;;;;;;5.83;72.63;98037.95;1696634;81;21239;-75
2021/01/26 01:28:27;;;;;;;1.80;0.65;;;;;;;5.75;71.14;98040.02;1693346;82;21148;-77
2021/01/26 01:30:56;;;;;;;2.30;0.70;;;;;;;5.31;69.93;98073.83;1674964;83;21208;-75
2021/01/26 01:33:24;;;;;;;1.95;0.70;;;;;;;5.31;69.93;98073.83;1696565;82;21602;-74
2021/01/26 01:35:52;;;;;;;2.72;0.90;;;;;;;5.05;70.42;98080.69;1673105;83;21240;-74
2021/01/26 01:38:20;;;;;;;1.47;0.53;;;;;;;4.75;72.00;98093.81;1695484;81;21204;-76
2021/01/26 01:40:47;;;;;;;1.92;0.60;;;;;;;4.71;70.66;98108.55;1694361;81;21117;-76
2021/01/26 01:43:15;;;;;;;2.15;0.72;;;;;;;4.71;70.66;98108.55;1661194;82;21168;-77
2021/01/26 01:45:42;;;;;;;2.12;0.70;;;;;;;4.63;70.46;98120.52;1697629;81;21208;-74
2021/01/26 01:48:25;;;;;;;2.30;0.70;;;;;;;4.46;69.89;98140.28;1676845;82;21199;-74
2021/01/26 01:51:14;;;;;;;2.65;0.90;;;;;;;4.33;70.57;98154.55;1670114;83;21646;-75
2021/01/26 01:53:49;;;;;;;3.10;0.80;;;;;;;4.21;70.58;98165.09;1685147;82;21216;-74
2021/01/26 01:56:27;;;;;;;1.77;0.68;;;;;;;4.09;70.76;98169.61;1665214;82;21638;-74
2021/01/26 01:59:02;;;;;;;3.55;0.78;;;;;;;4.09;71.07;98185.23;1681356;82;21598;-75
2021/01/26 02:01:30;;;;;;;2.25;0.53;;;;;;;4.12;70.89;98182.84;1679548;82;21224;-76
2021/01/26 02:04:05;;;;;;;2.72;0.57;;;;;;;4.10;70.96;98226.39;1671682;82;21199;-74
2021/01/26 02:06:34;;;;;;;2.83;0.62;;;;;;;3.98;71.24;98199.66;1684867;82;21244;-75
2021/01/26 02:09:17;;;;;;;1.20;0.45;;;;;;;3.86;71.60;98204.64;1680018;82;21207;-78
2021/01/26 02:11:46;;;;;;;2.37;0.85;;;;;;;3.74;72.19;98223.92;1651607;83;21553;-77
2021/01/26 02:14:13;;;;;;;3.35;0.90;;;;;;;3.66;72.36;98237.58;1682436;83;22673;-75
2021/01/26 02:17:21;;;;;;;2.92;0.98;;;;;;;3.66;72.24;98242.78;1640134;84;21235;-75
2021/01/26 02:20:22;;;;;;;3.55;1.07;;;;;;;3.65;72.52;98255.45;1645632;84;21197;-77
2021/01/26 02:23:18;;;;;;;3.83;1.32;;;;;;;3.50;73.10;98262.30;1627083;85;21244;-74
2021/01/26 02:26:09;;;;;;;3.72;1.47;;;;;;;3.33;72.89;98269.41;1646329;84;21215;-75
2021/01/26 02:28:54;;;;;;;4.72;1.47;;;;;;;3.20;73.07;98274.80;1646447;84;21219;-75
2021/01/26 02:31:30;;;;;;;3.92;1.37;;;;;;;3.20;73.20;98281.30;1643124;85;21227;-74
2021/01/26 02:34:23;;;;;;;;;;;;;;;3.17;72.84;98286.74;1653606;85;21183;-74
2021/01/26 02:37:11;;;;;;;3.20;1.40;;;;;;;3.08;72.61;98288.33;1647496;85;20433;-77
2021/01/26 02:39:56;;;;;;;5.45;2.02;;;;;;;2.89;72.71;98293.37;1645976;84;21545;-75
2021/01/26 02:43:00;;;;;;;3.62;1.57;;;;;;;2.84;73.37;98303.33;1626914;84;21223;-78
2021/01/26 02:45:42;;;;;;;4.55;1.82;;;;;;;2.91;73.08;98323.50;1647033;84;22604;-74
2021/01/26 02:48:38;;;;;;;4.45;1.52;;;;;;;2.92;73.09;98320.41;1646940;84;21212;-72
2021/01/26 02:51:13;;;;;;;5.58;2.45;;;;;;;2.85;73.09;98343.47;1635613;85;21192;-74
2021/01/26 02:53:58;;;;;;;5.58;2.17;;;;;;;2.78;72.90;98331.45;1624496;86;21215;-74
2021/01/26 02:56:53;;;;;;;7.28;2.37;;;;;;;2.72;73.15;98337.16;1646033;84;21204;-74
2021/01/26 02:59:53;;;;;;;8.03;3.02;;;;;;;2.76;72.83;98334.64;1625289;85;21802;-75
2021/01/26 03:02:32;;;;;;;6.12;2.58;;;;;;;2.73;73.08;98325.80;1648058;84;22154;-74
2021/01/26 03:05:11;;;;;;;7.03;3.20;;;;;;;2.64;73.10;98337.39;1647474;84;21243;-74
2021/01/26 03:07:45;;;;;;;7.42;3.05;;;;;;;2.55;73.13;98341.55;1606087;86;21646;-77
2021/01/26 03:10:16;;;;;;;6.63;3.53;;;;;;;2.57;72.69;98358.67;1643849;84;21222;-77
2021/01/26 03:12:48;;;;;;;6.90;3.20;;;;;;;2.65;72.09;98333.38;1641716;84;22681;-73
2021/01/26 03:15:21;;;;;;;8.45;3.65;;;;;;;2.67;71.73;98343.16;1606585;86;21216;-74
2021/01/26 03:17:58;;;;;;;7.10;3.27;;;;;;;2.65;72.13;98358.05;1625805;86;22464;-76
2021/01/26 03:20:36;;;;;;;6.87;3.35;;;;;;;2.64;71.99;98356.42;1626436;86;21650;-75
2021/01/26 03:23:17;;;;;;;9.88;3.90;;;;;;;2.65;71.51;98370.22;1631163;86;22022;-73
2021/01/26 03:25:48;;;;;;;6.78;3.55;;;;;;;2.74;70.32;98374.66;1651163;85;21252;-75
2021/01/26 03:28:16;;;;;;;9.25;3.42;;;;;;;2.79;70.80;98377.71;1646714;84;21169;-74
2021/01/26 03:30:46;;;;;;;7.58;4.03;;;;;;;2.78;70.64;98382.09;1627231;86;21215;-76
2021/01/26 03:33:33;;;;;;;6.72;3.83;;;;;;;2.76;70.26;98410.45;1646395;84;21200;-76
2021/01/26 03:36:18;;;;;;;7.55;3.83;;;;;;;2.75;70.74;98363.34;1874361;75;22333;-56
2021/01/26 03:38:45;;;;;;;7.25;3.95;;;;;;;2.75;70.19;98382.81;1811407;76;21689;-58
2021/01/26 03:41:13;;;;;;;11.45;5.25;;;;;;;2.82;69.66;98401.33;1845060;76;21634;-54
2021/01/26 03:43:40;;;;;;;8.38;4.10;;;;;;;2.87;69.76;98399.19;1786211;78;21640;-54
2021/01/26 03:46:42;;;;;;;9.63;3.67;;;;;;;2.83;69.46;98391.30;1801006;78;21128;-55
2021/01/26 03:49:35;;;;;;;9.55;5.15;;;;;;;2.79;69.85;98422.72;1776061;78;21186;-54
2021/01/26 03:52:46;;;;;;;13.05;5.37;;;;;;;2.72;69.36;98418.11;1768532;78;22509;-56
2021/01/26 03:55:29;;;;;;;8.30;4.17;;;;;;;2.74;69.57;98409.72;1805246;77;22733;-54
2021/01/26 03:58:12;;;;;;;9.68;5.12;;;;;;;2.83;69.44;98418.09;1788366;79;21244;-57
2021/01/26 04:11:39;;;;;;;8.28;4.30;;;;;;;2.63;69.37;98436.55;1805630;77;22820;-56
2021/01/26 04:14:32;;;;;;;10.03;5.58;;;;;;;2.61;69.04;98426.77;1764758;80;21689;-57
2021/01/26 04:17:23;;;;;;;13.03;7.47;;;;;;;2.63;69.16;98431.36;1778528;77;27755;-56
2021/01/26 04:20:07;;;;;;;9.08;4.28;;;;;;;2.75;68.31;98434.76;1776284;78;21493;-55
2021/01/26 04:22:34;;;;;;;8.38;4.97;;;;;;;2.91;67.66;98452.09;1776600;78;21205;-53
2021/01/26 04:25:34;;;;;;;11.43;5.37;;;;;;;2.90;67.34;98454.80;1775908;78;21191;-56
2021/01/26 04:28:07;;;;;;;8.58;4.92;;;;;;;2.96;66.83;98440.04;1770806;78;21124;-57
2021/01/26 04:30:34;;;;;;;9.78;5.62;;;;;;;2.91;66.26;98462.97;1778598;78;21177;-57
2021/01/26 04:33:07;;;;;;;9.40;5.00;;;;;;;2.85;66.83;98466.03;1778656;78;21152;-59
2021/01/26 04:35:34;;;;;;;11.10;5.65;;;;;;;2.77;66.70;98475.27;1756673;78;21606;-56
2021/01/26 04:38:02;;;;;;;11.45;5.70;;;;;;;2.73;66.82;98475.13;1744949;78;21231;-55
2021/01/26 04:40:30;;;;;;;9.43;4.42;;;;;;;2.72;67.07;98484.34;1777876;78;21179;-58
2021/01/26 04:43:20;;;;;;;10.13;5.75;;;;;;;2.81;66.76;98506.17;1779358;78;21152;-56
2021/01/26 04:46:06;;;;;;;9.35;4.70;;;;;;;2.88;66.38;98499.09;1778423;78;21615;-56
2021/01/26 04:48:58;;;;;;;7.58;4.17;;;;;;;2.83;66.15;98508.20;1779995;78;21531;-56
2021/01/26 04:51:46;;;;;;;11.03;4.58;;;;;;;2.76;66.13;98516.45;1765267;78;21764;-57
2021/01/26 04:54:37;;;;;;;9.33;4.60;;;;;;;2.72;66.16;98533.69;1774812;78;21203;-57
2021/01/26 04:57:37;;;;;;;10.10;4.50;;;;;;;2.68;66.35;98521.41;1777229;78;21784;-58
2021/01/26 05:00:39;;;;;;;7.97;4.40;;;;;;;2.69;66.36;98519.18;1776397;78;22537;-58
2021/01/26 05:03:30;;;;;;;10.58;5.00;;;;;;;2.68;65.75;98525.31;1748638;78;21238;-56
2021/01/26 05:06:04;;;;;;;9.10;4.83;;;;;;;2.82;66.22;98533.80;1774449;78;21183;-55
2021/01/26 05:08:36;;;;;;;9.78;4.20;;;;;;;2.86;65.56;98545.59;1776080;78;21219;-56
2021/01/26 05:11:15;;;;;;;13.00;5.30;;;;;;;2.84;65.41;98535.36;1744875;78;21139;-55
2021/01/26 05:13:51;;;;;;;9.20;4.15;;;;;;;2.81;65.12;98543.83;1777643;78;21143;-58
2021/01/26 05:16:34;;;;;;;;;;;;;;;2.78;65.03;98566.51;1722756;80;21206;-56
2021/01/26 05:19:25;;;;;;;10.30;4.90;;;;;;;2.75;65.45;98546.44;1728436;82;20951;-55
2021/01/26 05:22:27;;;;;;;9.85;5.00;;;;;;;2.69;65.13;98559.44;1729533;82;21175;-55
2021/01/26 05:25:00;;;;;;;8.08;4.53;;;;;;;2.72;65.07;98570.05;1725798;82;21598;-56
2021/01/26 05:27:28;;;;;;;8.95;4.55;;;;;;;2.72;65.12;98571.34;1728358;82;21109;-56
2021/01/26 05:29:57;;;;;;;9.23;4.37;;;;;;;2.72;65.32;98572.19;1706518;81;21235;-56
2021/01/26 05:32:25;;;;;;;8.93;4.85;;;;;;;2.72;65.31;98583.87;1705456;82;21171;-56
2021/01/26 05:34:53;;;;;;;8.48;4.55;;;;;;;2.74;64.87;98593.67;1699107;82;21622;-57
2021/01/26 05:37:20;;;;;;;8.05;3.45;;;;;;;2.74;64.31;98585.88;1727051;82;21207;-60
2021/01/26 05:39:56;;;;;;;7.80;4.12;;;;;;;2.77;63.91;98610.78;1703648;82;21591;-57
2021/01/26 05:42:43;;;;;;;10.55;3.62;;;;;;;2.84;64.16;98600.75;1871007;74;22649;-59
2021/01/26 05:45:22;;;;;;;7.67;3.47;;;;;;;2.83;64.04;98599.11;1842969;75;21184;-56
2021/01/26 05:48:03;;;;;;;6.70;3.35;;;;;;;2.85;63.88;98605.01;1841576;75;21419;-57
2021/01/26 05:50:33;;;;;;;7.20;3.12;;;;;;;2.85;63.30;98601.93;1815279;75;21179;-58
2021/01/26 05:53:04;;;;;;;5.53;2.45;;;;;;;2.87;63.44;98627.80;1840376;75;21195;-57
2021/01/26 05:55:34;;;;;;;10.82;3.77;;;;;;;2.89;63.48;98615.51;1842143;75;21471;-57
2021/01/26 05:58:13;;;;;;;8.15;3.17;;;;;;;2.92;63.96;98614.80;1797597;77;21199;-55
2021/01/26 06:00:41;;;;;;;7.75;3.55;;;;;;;2.95;63.64;98628.86;1785809;77;21169;-54
2021/01/26 06:03:19;;;;;;;7.92;3.25;;;;;;;2.97;63.60;98628.26;1778271;78;21204;-56
2021/01/26 06:06:08;;;;;;;9.30;4.20;;;;;;;3.00;63.60;98631.11;1777255;78;21218;-59
2021/01/26 06:08:57;;;;;;;5.85;2.72;;;;;;;2.98;62.72;98639.02;1766113;78;21194;-57
2021/01/26 06:11:29;;;;;;;6.60;2.90;;;;;;;2.99;62.84;98643.73;1803131;77;21120;-56
2021/01/26 06:14:14;;;;;;;7.25;2.90;;;;;;;2.97;62.80;98641.25;1782443;78;21352;-57
2021/01/26 06:16:42;;;;;;;5.22;2.35;;;;;;;3.00;63.08;98647.18;1755827;78;21573;-56
2021/01/26 06:19:14;;;;;;;7.62;2.80;;;;;;;3.04;62.66;98660.28;1775456;77;21103;-57
2021/01/26 06:21:50;;;;;;;7.97;3.90;;;;;;;3.05;62.18;98658.05;1769926;78;21204;-56
2021/01/26 06:24:21;;;;;;;6.78;2.75;;;;;;;3.08;62.64;98667.73;1801985;77;21199;-56
2021/01/26 06:27:26;;;;;;;6.30;2.65;;;;;;;3.08;62.63;98687.70;1745608;78;21961;-55
2021/01/26 06:30:19;;;;;;;;;;;;;;;3.10;62.00;98668.91;1783594;78;21659;-58
2021/01/26 06:33:43;;;;;;;6.83;2.65;;;;;;;3.08;61.97;98653.44;1804976;78;20290;-56
2021/01/26 06:36:49;;;;;;;12.65;4.55;;;;;;;3.02;61.97;98681.19;1776720;78;21119;-58
2021/01/26 06:39:51;;;;;;;10.95;5.47;;;;;;;3.03;62.08;98691.13;1783039;78;21129;-56
2021/01/26 06:42:50;;;;;;;6.62;2.85;;;;;;;3.05;62.80;98690.53;1760853;80;21510;-59
2021/01/26 06:45:31;;;;;;;8.68;3.58;;;;;;;3.09;62.33;98714.88;1786821;78;21234;-55
2021/01/26 06:48:22;;;;;;;9.88;2.98;;;;;;;3.11;62.38;98705.63;1786159;78;21605;-57
2021/01/26 06:51:19;;;;;;;7.72;3.55;;;;;;;3.08;61.84;98720.19;1785423;78;21211;-55
2021/01/26 06:53:54;;;;;;;9.33;4.80;;;;;;;3.08;62.54;98714.51;1785608;78;21198;-60
2021/01/26 06:57:06;;;;;;;7.85;3.35;;;;;;;3.10;62.12;98719.59;1740163;79;23331;-58
2021/01/26 06:59:45;;;;;;;7.33;3.40;;;;;;;3.12;62.23;98729.39;1756208;79;21237;-58
2021/01/26 07:02:42;;;;;;;6.33;3.33;;;;;;;3.09;62.20;98730.47;1787653;78;21585;-56
2021/01/26 07:05:50;;;;;;;9.13;4.25;;;;;;;3.10;62.02;98732.11;1786511;78;21190;-55
2021/01/26 07:08:26;;;;;;;7.42;3.47;;;;;;;3.13;62.33;98746.17;1785284;79;21594;-55
2021/01/26 07:11:15;;;;;;;7.37;2.98;;;;;;;3.16;62.50;98749.84;1777485;78;21244;-55
2021/01/26 07:14:27;;;;;;;7.72;3.62;;;;;;;3.19;62.27;98735.77;1792141;78;21208;-55
2021/01/26 07:17:01;;;;;;;6.33;3.50;;;;;;;3.22;62.07;98755.52;1776720;78;21191;-55
2021/01/26 07:19:57;;;;;;;8.18;3.80;;;;;;;3.22;62.48;98756.34;1766403;79;21187;-55
2021/01/26 07:23:10;;;;;;;5.37;2.15;;;;;;;3.25;62.40;98754.81;1802911;78;21151;-63
2021/01/26 07:25:58;;;;;;;7.20;2.85;;;;;;;3.25;61.76;98787.79;1798994;78;21369;-55
2021/01/26 07:28:56;;;;;;;5.85;2.70;;;;;;;3.23;62.13;98766.26;1777077;78;22407;-58
2021/01/26 07:31:33;;;;;;;5.90;2.45;;;;;;;3.26;61.64;98781.63;1773932;78;21580;-57
2021/01/26 07:34:34;;;;;;;6.92;3.00;;;;;;;3.24;61.55;98773.13;1769709;78;21117;-57
2021/01/26 07:37:30;;;;;;;6.00;2.35;;;;;;;3.26;61.90;98798.53;1797458;77;21171;-57
2021/01/26 07:40:19;;;;;;;7.62;2.45;;;;;;;3.27;61.55;98802.31;1866628;74;23027;-55
2021/01/26 07:43:12;;;;;;;4.95;2.35;;;;;;;3.25;61.92;98796.41;1843673;75;21214;-57
2021/01/26 07:46:18;;;;;;;5.33;1.90;;;;;;;3.25;61.59;98805.98;1841272;75;21202;-57
2021/01/26 07:49:08;;;;;;;5.22;2.05;;;;;;;3.25;61.18;98786.49;1837408;75;21194;-55
2021/01/26 07:51:40;;;;;;;4.58;1.90;;;;;;;3.27;61.27;98800.20;1810693;75;21542;-58
2021/01/26 07:54:17;;;;;;;6.37;2.47;;;;;;;3.29;61.23;98820.40;1809977;75;22390;-57
2021/01/26 07:56:44;;;;;;;7.83;2.62;;;;;;;3.29;61.29;98807.40;1840971;75;21168;-57
2021/01/26 07:59:21;;;;;;;9.28;2.75;;;;;;;3.34;61.51;98813.90;1843280;75;21206;-56
2021/01/26 08:01:59;;;;;;;6.00;2.75;;;;;;;3.35;61.37;98824.67;1843908;75;21159;-60
2021/01/26 08:04:31;;;;;;;5.40;2.45;;;;;;;3.39;61.21;98825.74;1841207;75;21203;-60
2021/01/26 08:06:59;;;;;;;5.78;2.72;;;;;;;3.37;61.34;98825.85;1843853;75;21674;-59
2021/01/26 08:09:41;;;;;;;5.03;2.20;;;;;;;3.42;61.52;98832.02;1843065;75;21183;-60
2021/01/26 08:12:32;;;;;;;5.58;2.17;;;;;;;3.43;61.43;98828.45;1777321;78;21830;-60
2021/01/26 08:15:26;;;;;;;5.90;2.33;;;;;;;3.47;61.02;98841.59;1800467;77;21179;-63
2021/01/26 08:17:53;;;;;;;7.30;2.60;;;;;;;3.45;61.12;98841.71;1806890;77;21539;-61
2021/01/26 08:20:31;;;;;;;5.37;2.10;;;;;;;3.46;61.20;98824.33;1768438;78;21208;-60
2021/01/26 08:23:02;;;;;;;6.12;2.12;;;;;;;3.47;61.04;98869.72;1803173;77;21184;-61
2021/01/26 08:25:38;;;;;;;6.37;2.47;;;;;;;3.46;61.03;98882.39;1780543;77;22151;-63
2021/01/26 08:28:10;;;;;;;5.75;2.60;;;;;;;3.44;61.29;98872.55;1798528;77;21349;-59
2021/01/26 08:30:49;;;;;;;8.30;2.67;;;;;;;3.44;60.94;98879.05;1806970;77;21211;-63
2021/01/26 08:33:18;;;;;;;5.55;2.50;;;;;;;3.44;61.12;98889.93;1779058;77;21629;-63
2021/01/26 08:36:09;;;;;;;5.60;2.10;;;;;;;3.45;61.28;98878.59;1809184;77;21165;-62
2021/01/26 08:38:54;;;;;;;4.20;2.17;;;;;;;3.45;61.30;98888.52;1751894;78;21545;-61
2021/01/26 08:41:42;;;;;;;6.92;2.75;;;;;;;3.44;61.25;98901.15;1802604;77;21123;-60
2021/01/26 08:44:26;;;;;;;5.85;1.52;;;;;;;3.45;61.28;98908.50;1801652;77;21139;-63
2021/01/26 08:46:54;;;;;;;4.65;1.85;;;;;;;3.43;61.14;98923.36;1797184;78;21159;-62
2021/01/26 08:49:34;;;;;;;4.30;1.77;;;;;;;3.41;61.08;98922.17;1770274;78;21230;-63
2021/01/26 08:52:23;;;;;;;5.70;2.37;;;;;;;3.38;60.46;98919.83;1768422;79;21216;-63
2021/01/26 08:54:55;;;;;;;4.47;2.02;;;;;;;3.38;60.79;98922.88;1773013;79;21218;-62
2021/01/26 08:57:32;;;;;;;4.78;1.82;;;;;;;3.38;60.50;98920.28;1767829;79;21136;-61
2021/01/26 09:00:15;;;;;;;;;;;;;;;3.34;60.50;98929.59;1781261;78;21638;-59
2021/01/26 09:02:50;;;;;;;5.28;1.65;;;;;;;3.32;60.47;98918.48;1794731;78;20561;-61
2021/01/26 09:05:42;;;;;;;;;;;;;;;3.26;60.92;98954.50;1799122;78;21527;-63
2021/01/26 09:08:09;;;;;;;4.37;1.55;;;;;;;3.25;60.90;98947.66;1794498;78;20301;-62
2021/01/26 09:10:43;;;;;;;5.22;1.60;;;;;;;3.20;60.70;98962.77;1796752;77;21144;-63
2021/01/26 09:13:24;;;;;;;3.60;1.20;;;;;;;3.23;60.71;98970.31;1796305;78;21139;-65
2021/01/26 09:15:54;;;;;;;5.10;1.42;;;;;;;3.27;60.66;98989.97;1795806;78;21210;-59
2021/01/26 09:18:24;;;;;;;5.42;1.45;;;;;;;3.27;60.43;98966.57;1795302;78;21629;-64
2021/01/26 09:21:03;;;;;;;4.33;1.72;;;;;;;3.29;60.34;98964.69;1795569;78;21227;-61
2021/01/26 09:23:31;;;;;;;4.37;2.10;;;;;;;3.29;60.31;98978.50;1797664;78;21527;-64
2021/01/26 09:25:58;;;;;;;4.97;1.85;;;;;;;3.32;60.62;98993.89;1796785;78;21092;-64
2021/01/26 09:28:29;;;;;;;2.87;1.25;;;;;;;3.32;60.32;98974.86;1794320;77;21411;-60
2021/01/26 09:31:00;;;;;;;4.35;1.82;;;;;;;3.32;60.49;98983.97;1754247;79;21192;-58
2021/01/26 09:33:29;;;;;;;5.92;1.95;;;;;;;3.30;60.57;98987.16;1794698;78;21657;-60
2021/01/26 09:36:08;;;;;;;4.97;2.02;;;;;;;3.27;60.55;98985.59;1795924;77;21176;-60
2021/01/26 09:38:45;;;;;;;4.00;1.32;;;;;;;3.27;60.63;98982.99;1794325;77;21180;-60
2021/01/26 09:41:28;;;;;;;3.67;1.35;;;;;;;3.27;60.63;99014.19;1775599;79;21231;-62
2021/01/26 09:44:09;;;;;;;5.25;1.82;;;;;;;3.28;61.21;98986.44;1796840;78;21191;-60
2021/01/26 09:46:44;;;;;;;4.85;1.92;;;;;;;3.31;60.47;98987.05;1774824;77;22676;-60
2021/01/26 09:49:26;;;;;;;4.03;1.65;;;;;;;3.34;60.72;98990.70;1762453;78;21206;-59
2021/01/26 09:52:04;;;;;;;3.02;1.20;;;;;;;3.34;60.78;98974.27;1788299;77;21167;-59
2021/01/26 09:54:39;;;;;;;3.72;1.52;;;;;;;3.32;60.63;99015.98;1753191;78;21649;-61
2021/01/26 09:57:09;;;;;;;4.08;1.20;;;;;;;3.31;60.64;99014.34;1811435;77;21218;-62
2021/01/26 09:59:36;;;;;;;3.08;0.98;;;;;;;3.32;60.70;98986.56;1811313;77;22573;-60
2021/01/26 10:02:08;;;;;;;6.55;1.45;;;;;;;3.31;60.84;99005.69;1782552;77;21434;-60
2021/01/26 10:04:38;;;;;;;4.22;1.60;;;;;;;3.33;60.89;98999.45;1806042;77;21183;-63
2021/01/26 10:07:11;;;;;;;4.75;1.62;;;;;;;3.35;60.74;99017.07;1806817;77;21186;-63
2021/01/26 10:09:40;;;;;;;3.90;1.62;;;;;;;3.38;60.72;99006.93;1772509;78;22029;-63
2021/01/26 10:12:36;;;;;;;3.72;1.22;;;;;;;3.39;60.64;99038.95;1811861;77;21606;-62
2021/01/26 10:15:29;;;;;;;2.75;0.90;;;;;;;3.38;60.41;99018.63;1800450;77;21191;-60
2021/01/26 10:18:14;;;;;;;8.20;2.30;;;;;;;3.37;60.40;99034.34;1810510;77;21646;-60
2021/01/26 10:20:50;;;;;;;5.03;1.85;;;;;;;3.37;60.44;99027.84;1805570;77;21220;-60
2021/01/26 10:23:36;;;;;;;3.92;1.30;;;;;;;3.36;60.61;99015.29;1807284;77;24172;-59
2021/01/26 10:26:25;;;;;;;4.53;2.08;;;;;;;3.40;60.84;99026.33;1768367;78;21234;-60
2021/01/26 10:29:12;;;;;;;4.97;1.67;;;;;;;3.44;60.58;99040.75;1810521;77;21119;-60
2021/01/26 10:31:50;;;;;;;3.98;1.67;;;;;;;3.44;60.25;99031.17;1765100;79;21647;-58
2021/01/26 10:34:36;;;;;;;3.35;1.17;;;;;;;3.50;60.10;99025.53;1799346;78;22827;-56
2021/01/26 10:37:30;;;;;;;5.05;1.75;;;;;;;3.49;60.16;99045.97;1756276;79;21741;-58
2021/01/26 10:40:24;;;;;;;3.70;1.57;;;;;;;3.52;59.97;99089.97;1786167;79;21261;-57
2021/01/26 10:43:11;;;;;;;4.47;1.50;;;;;;;3.53;60.06;99050.48;1787731;79;21179;-56
2021/01/26 10:45:43;;;;;;;3.30;0.90;;;;;;;3.57;59.85;99061.04;1789112;79;21238;-58
2021/01/26 10:48:24;;;;;;;4.25;1.52;;;;;;;3.57;59.33;99045.91;1755792;79;21502;-57
2021/01/26 10:50:53;;;;;;;4.37;1.52;;;;;;;3.58;59.56;99063.16;1756470;79;21223;-56
2021/01/26 10:53:46;;;;;;;3.17;1.00;;;;;;;3.59;59.24;99070.03;1757338;79;21257;-56
2021/01/26 10:56:15;;;;;;;5.50;1.80;;;;;;;3.56;59.19;99074.97;1758587;79;21228;-59
2021/01/26 10:58:46;;;;;;;3.75;1.37;;;;;;;3.57;59.65;99077.94;1765173;79;21224;-57
2021/01/26 11:01:21;;;;;;;4.05;1.55;;;;;;;3.57;58.92;99100.53;1788179;79;21144;-55
2021/01/26 11:03:50;;;;;;;4.65;1.42;;;;;;;3.60;59.47;99085.53;1786964;79;21160;-56
2021/01/26 11:06:18;;;;;;;3.62;1.25;;;;;;;3.63;59.47;99090.97;1787223;79;22193;-56
2021/01/26 11:08:47;;;;;;;3.87;1.57;;;;;;;3.65;58.89;99079.53;1789522;79;21198;-56
2021/01/26 11:11:17;;;;;;;2.37;0.98;;;;;;;3.65;58.96;99106.02;1760475;79;21168;-56
2021/01/26 11:13:44;;;;;;;5.20;2.08;;;;;;;3.65;58.98;99102.12;1766056;79;21190;-56
2021/01/26 11:16:12;;;;;;;4.90;1.80;;;;;;;3.64;59.28;99100.45;1789144;79;21538;-56
2021/01/26 11:18:41;;;;;;;3.83;1.32;;;;;;;3.64;58.91;99103.05;1788744;79;21368;-56
2021/01/26 11:21:09;;;;;;;3.87;1.25;;;;;;;3.64;58.67;99104.34;1790072;79;21207;-55
2021/01/26 11:23:37;;;;;;;7.03;1.37;;;;;;;3.66;58.58;99108.48;1760977;79;21162;-58
2021/01/26 11:26:05;;;;;;;3.72;1.30;;;;;;;3.66;58.45;99133.67;1788343;79;21560;-59
2021/01/26 11:28:33;;;;;;;5.00;1.50;;;;;;;3.66;58.36;99133.20;1788200;79;21184;-56
2021/01/26 11:31:01;;;;;;;9.95;2.05;;;;;;;3.66;58.43;99112.86;1789926;79;21210;-55
2021/01/26 11:33:30;;;;;;;3.50;1.00;;;;;;;3.70;58.68;99121.65;1782080;79;21207;-55
2021/01/26 11:35:59;;;;;;;4.12;1.60;;;;;;;3.71;58.21;99108.98;1774232;79;21274;-55
2021/01/26 11:38:27;;;;;;;3.98;1.15;;;;;;;3.72;58.67;99121.06;1753678;79;21152;-55
2021/01/26 11:40:56;;;;;;;4.60;1.37;;;;;;;3.72;58.17;99129.34;1775172;79;21184;-58
2021/01/26 11:43:23;;;;;;;4.28;1.30;;;;;;;3.69;58.27;99139.97;1774742;79;22578;-55
2021/01/26 11:45:51;;;;;;;4.25;1.37;;;;;;;3.69;58.26;99143.87;1772361;79;21207;-55
2021/01/26 11:48:21;;;;;;;2.67;1.15;;;;;;;3.67;58.29;99137.47;1774073;79;21180;-58
2021/01/26 11:50:49;;;;;;;5.47;2.10;;;;;;;3.66;58.40;99147.50;1775000;79;21196;-58
2021/01/26 11:53:17;;;;;;;5.33;1.10;;;;;;;3.67;58.34;99154.38;1753468;79;21532;-59
2021/01/26 11:55:44;;;;;;;3.58;1.42;;;;;;;3.65;58.06;99164.07;1775395;79;21167;-59
2021/01/26 11:58:12;;;;;;;4.37;1.62;;;;;;;3.63;58.21;99180.71;1774446;79;21168;-57
2021/01/26 12:00:40;;;;;;;4.20;1.32;;;;;;;3.63;58.44;99156.00;1746981;79;21168;-57
2021/01/26 12:03:08;;;;;;;4.10;1.57;;;;;;;3.64;58.56;99161.09;1752908;79;21234;-58
2021/01/26 12:05:39;;;;;;;5.08;1.82;;;;;;;3.66;58.25;99157.09;1772914;79;21133;-57
2021/01/26 12:08:07;;;;;;;5.28;1.17;;;;;;;3.64;58.08;99164.18;1745243;79;21841;-57
2021/01/26 12:10:35;;;;;;;3.45;1.37;;;;;;;3.61;58.13;99163.09;1773379;79;21148;-58
2021/01/26 12:13:03;;;;;;;3.58;1.42;;;;;;;3.62;58.34;99165.59;1775042;79;21140;-57
2021/01/26 12:15:34;;;;;;;2.83;0.98;;;;;;;3.62;58.44;99179.07;1775928;79;21180;-57
2021/01/26 12:18:04;;;;;;;3.27;1.05;;;;;;;3.61;58.40;99195.61;1774552;79;21184;-56
2021/01/26 12:20:32;;;;;;;3.12;0.93;;;;;;;3.60;58.38;99180.48;1774618;79;21192;-56
2021/01/26 12:23:01;;;;;;;3.47;1.32;;;;;;;3.60;58.30;99191.33;1776618;79;21460;-56
2021/01/26 12:25:30;;;;;;;3.65;1.07;;;;;;;3.56;58.22;99200.30;1750323;79;21168;-55
2021/01/26 12:27:59;;;;;;;5.25;1.52;;;;;;;3.56;58.86;99201.60;1747216;79;21191;-58
2021/01/26 12:30:27;;;;;;;4.05;1.27;;;;;;;3.57;58.45;99218.88;1747352;79;21524;-56
2021/01/26 12:32:55;;;;;;;3.47;1.25;;;;;;;3.57;58.23;99214.98;1773806;79;21709;-54
2021/01/26 12:35:29;;;;;;;3.52;1.20;;;;;;;3.57;58.35;99217.58;1774817;78;21208;-55
2021/01/26 12:37:57;;;;;;;4.10;1.67;;;;;;;3.57;58.38;99234.02;1747224;79;21187;-54
2021/01/26 12:40:25;;;;;;;5.42;1.50;;;;;;;3.57;58.62;99234.02;1747548;79;21204;-55
2021/01/26 12:42:53;;;;;;;10.93;1.82;;;;;;;3.58;58.35;99228.33;1774437;79;21082;-55
2021/01/26 12:45:25;;;;;;;3.15;1.12;;;;;;;3.56;58.34;99227.61;1773848;79;21912;-56